sensor_id;sensor_type;location;lat;lon;timestamp;pressure;altitude;pressure_sealevel;temperature;humidity
23616;BME280;11985;49.404;7.734;2023-12-20T00:04:10;97349.97;;;2.09;100.00
23616;BME280;11985;49.404;7.734;2023-12-20T00:09:13;97355.03;;;2.11;100.00
23616;BME280;11985;49.404;7.734;2023-12-20T00:14:14;97357.75;;;2.09;100.00
23616;BME280;11985;49.404;7.734;2023-12-20T00:19:16;97356.66;;;2.12;100.00
23616;BME280;11985;49.404;7.734;2023-12-20T00:24:19;97346.41;;;2.10;100.00
23616;BME280;11985;49.404;7.734;2023-12-20T00:29:20;97352.44;;;2.11;100.00
23616;BME280;11985;49.404;7.734;2023-12-20T00:34:22;97355.31;;;2.08;100.00
23616;BME280;11985;49.404;7.734;2023-12-20T00:39:25;97360.34;;;2.09;100.00
23616;BME280;11985;49.404;7.734;2023-12-20T00:44:27;97349.31;;;2.07;100.00
23616;BME280;11985;49.404;7.734;2023-12-20T00:49:31;97337.66;;;2.11;100.00
23616;BME280;11985;49.404;7.734;2023-12-20T00:54:34;97334.09;;;2.13;100.00
23616;BME280;11985;49.404;7.734;2023-12-20T00:59:36;97328.91;;;2.13;100.00
23616;BME280;11985;49.404;7.734;2023-12-20T01:04:37;97328.91;;;2.13;100.00
23616;BME280;11985;49.404;7.734;2023-12-20T01:09:40;97334.91;;;2.13;100.00
23616;BME280;11985;49.404;7.734;2023-12-20T01:14:42;97333.78;;;2.16;100.00
23616;BME280;11985;49.404;7.734;2023-12-20T01:19:44;97342.53;;;2.15;100.00
23616;BME280;11985;49.404;7.734;2023-12-20T01:24:47;97333.47;;;2.19;100.00
23616;BME280;11985;49.404;7.734;2023-12-20T01:29:48;97322.13;;;2.20;100.00
23616;BME280;11985;49.404;7.734;2023-12-20T01:34:50;97312.03;;;2.17;100.00
23616;BME280;11985;49.404;7.734;2023-12-20T01:39:55;97307.50;;;2.19;100.00
23616;BME280;11985;49.404;7.734;2023-12-20T01:44:57;97321.59;;;2.16;100.00
23616;BME280;11985;49.404;7.734;2023-12-20T01:49:59;97340.31;;;2.20;100.00
23616;BME280;11985;49.404;7.734;2023-12-20T01:55:05;97326.06;;;2.24;100.00
23616;BME280;11985;49.404;7.734;2023-12-20T02:00:14;97323.91;;;2.19;100.00
23616;BME280;11985;49.404;7.734;2023-12-20T02:05:16;97329.91;;;2.20;100.00
23616;BME280;11985;49.404;7.734;2023-12-20T02:10:22;97346.69;;;2.25;100.00
23616;BME280;11985;49.404;7.734;2023-12-20T02:15:24;97328.34;;;2.27;100.00
23616;BME280;11985;49.404;7.734;2023-12-20T02:20:26;97333.53;;;2.27;100.00
23616;BME280;11985;49.404;7.734;2023-12-20T02:25:29;97331.91;;;2.26;100.00
23616;BME280;11985;49.404;7.734;2023-12-20T02:30:30;97310.94;;;2.27;100.00
23616;BME280;11985;49.404;7.734;2023-12-20T02:35:32;97321.59;;;2.34;100.00
23616;BME280;11985;49.404;7.734;2023-12-20T02:40:35;97323.22;;;2.35;100.00
23616;BME280;11985;49.404;7.734;2023-12-20T02:45:36;97327.28;;;2.37;100.00
23616;BME280;11985;49.404;7.734;2023-12-20T02:50:38;97319.34;;;2.39;100.00
23616;BME280;11985;49.404;7.734;2023-12-20T02:55:41;97312.19;;;2.41;100.00
23616;BME280;11985;49.404;7.734;2023-12-20T03:00:43;97333.97;;;2.40;100.00
23616;BME280;11985;49.404;7.734;2023-12-20T03:05:45;97338.84;;;2.43;100.00
23616;BME280;11985;49.404;7.734;2023-12-20T03:10:48;97343.06;;;2.44;100.00
23616;BME280;11985;49.404;7.734;2023-12-20T03:15:50;97347.00;;;2.48;100.00
23616;BME280;11985;49.404;7.734;2023-12-20T03:20:51;97349.31;;;2.51;100.00
23616;BME280;11985;49.404;7.734;2023-12-20T03:25:54;97357.75;;;2.53;100.00
23616;BME280;11985;49.404;7.734;2023-12-20T03:30:56;97348.16;;;2.54;100.00
23616;BME280;11985;49.404;7.734;2023-12-20T03:35:58;97347.19;;;2.55;100.00
23616;BME280;11985;49.404;7.734;2023-12-20T03:41:00;97357.47;;;2.56;100.00
23616;BME280;11985;49.404;7.734;2023-12-20T03:46:02;97361.06;;;2.63;100.00
23616;BME280;11985;49.404;7.734;2023-12-20T03:51:04;97366.94;;;2.65;100.00
23616;BME280;11985;49.404;7.734;2023-12-20T03:56:07;97364.50;;;2.64;100.00
23616;BME280;11985;49.404;7.734;2023-12-20T04:01:10;97367.91;;;2.64;100.00
23616;BME280;11985;49.404;7.734;2023-12-20T04:06:17;97380.63;;;2.68;100.00
23616;BME280;11985;49.404;7.734;2023-12-20T04:11:21;97383.88;;;2.70;100.00
23616;BME280;11985;49.404;7.734;2023-12-20T04:16:22;97388.25;;;2.69;100.00
23616;BME280;11985;49.404;7.734;2023-12-20T04:21:24;97375.78;;;2.73;100.00
23616;BME280;11985;49.404;7.734;2023-12-20T04:26:27;97381.34;;;2.78;100.00
23616;BME280;11985;49.404;7.734;2023-12-20T04:31:29;97389.13;;;2.78;100.00
23616;BME280;11985;49.404;7.734;2023-12-20T04:36:31;97402.78;;;2.80;100.00
23616;BME280;11985;49.404;7.734;2023-12-20T04:41:34;97410.28;;;2.83;100.00
23616;BME280;11985;49.404;7.734;2023-12-20T04:46:35;97398.75;;;2.85;100.00
23616;BME280;11985;49.404;7.734;2023-12-20T04:51:37;97410.34;;;2.91;100.00
23616;BME280;11985;49.404;7.734;2023-12-20T04:56:40;97406.50;;;3.03;100.00
23616;BME280;11985;49.404;7.734;2023-12-20T05:01:42;97411.41;;;3.06;100.00
23616;BME280;11985;49.404;7.734;2023-12-20T05:06:44;97419.03;;;3.08;100.00
23616;BME280;11985;49.404;7.734;2023-12-20T05:11:46;97419.56;;;3.11;100.00
23616;BME280;11985;49.404;7.734;2023-12-20T05:16:48;97419.75;;;3.18;100.00
23616;BME280;11985;49.404;7.734;2023-12-20T05:21:50;97414.03;;;3.14;100.00
23616;BME280;11985;49.404;7.734;2023-12-20T05:26:53;97431.25;;;3.07;100.00
23616;BME280;11985;49.404;7.734;2023-12-20T05:31:54;97440.06;;;3.14;100.00
23616;BME280;11985;49.404;7.734;2023-12-20T05:36:57;97450.78;;;3.11;100.00
23616;BME280;11985;49.404;7.734;2023-12-20T05:42:00;97460.88;;;3.14;100.00
23616;BME280;11985;49.404;7.734;2023-12-20T05:47:02;97464.75;;;3.10;100.00
23616;BME280;11985;49.404;7.734;2023-12-20T05:52:04;97480.72;;;3.15;100.00
23616;BME280;11985;49.404;7.734;2023-12-20T05:57:07;97494.56;;;3.16;100.00
23616;BME280;11985;49.404;7.734;2023-12-20T06:02:09;97492.72;;;3.08;100.00
23616;BME280;11985;49.404;7.734;2023-12-20T06:07:11;97486.19;;;3.04;100.00
23616;BME280;11985;49.404;7.734;2023-12-20T06:12:14;97497.41;;;3.05;100.00
23616;BME280;11985;49.404;7.734;2023-12-20T06:17:16;97487.81;;;3.05;100.00
23616;BME280;11985;49.404;7.734;2023-12-20T06:22:18;97483.31;;;3.15;100.00
23616;BME280;11985;49.404;7.734;2023-12-20T06:27:20;97493.28;;;3.20;100.00
23616;BME280;11985;49.404;7.734;2023-12-20T06:32:22;97495.25;;;3.26;100.00
23616;BME280;11985;49.404;7.734;2023-12-20T06:37:24;97483.38;;;3.24;100.00
23616;BME280;11985;49.404;7.734;2023-12-20T06:42:27;97485.78;;;3.17;100.00
23616;BME280;11985;49.404;7.734;2023-12-20T06:47:29;97490.78;;;3.10;100.00
23616;BME280;11985;49.404;7.734;2023-12-20T06:52:30;97502.13;;;3.01;100.00
23616;BME280;11985;49.404;7.734;2023-12-20T06:57:33;97489.84;;;2.94;100.00
23616;BME280;11985;49.404;7.734;2023-12-20T07:02:36;97500.38;;;2.84;100.00
23616;BME280;11985;49.404;7.734;2023-12-20T07:07:38;97502.97;;;2.84;100.00
23616;BME280;11985;49.404;7.734;2023-12-20T07:12:41;97506.50;;;2.83;100.00
23616;BME280;11985;49.404;7.734;2023-12-20T07:17:42;97512.41;;;2.85;100.00
23616;BME280;11985;49.404;7.734;2023-12-20T07:22:44;97516.78;;;2.84;100.00
23616;BME280;11985;49.404;7.734;2023-12-20T07:27:48;97512.56;;;2.83;100.00
23616;BME280;11985;49.404;7.734;2023-12-20T07:32:50;97518.50;;;2.76;100.00
23616;BME280;11985;49.404;7.734;2023-12-20T07:37:52;97537.75;;;2.65;100.00
23616;BME280;11985;49.404;7.734;2023-12-20T07:42:55;97532.50;;;2.57;100.00
23616;BME280;11985;49.404;7.734;2023-12-20T07:47:58;97544.34;;;2.59;100.00
23616;BME280;11985;49.404;7.734;2023-12-20T07:53:00;97545.50;;;2.57;100.00
23616;BME280;11985;49.404;7.734;2023-12-20T07:58:03;97563.81;;;2.55;100.00
23616;BME280;11985;49.404;7.734;2023-12-20T08:03:05;97563.47;;;2.68;100.00
23616;BME280;11985;49.404;7.734;2023-12-20T08:08:07;97569.78;;;2.65;100.00
23616;BME280;11985;49.404;7.734;2023-12-20T08:13:10;97577.50;;;2.57;100.00
23616;BME280;11985;49.404;7.734;2023-12-20T08:18:12;97570.31;;;2.51;100.00
23616;BME280;11985;49.404;7.734;2023-12-20T08:23:13;97589.38;;;2.42;100.00
23616;BME280;11985;49.404;7.734;2023-12-20T08:28:16;97587.75;;;2.41;100.00
23616;BME280;11985;49.404;7.734;2023-12-20T08:33:18;97582.53;;;2.41;100.00
23616;BME280;11985;49.404;7.734;2023-12-20T08:38:19;97591.00;;;2.43;100.00
23616;BME280;11985;49.404;7.734;2023-12-20T08:43:22;97589.09;;;2.45;100.00
23616;BME280;11985;49.404;7.734;2023-12-20T08:48:24;97587.97;;;2.48;100.00
23616;BME280;11985;49.404;7.734;2023-12-20T08:53:26;97593.38;;;2.54;100.00
23616;BME280;11985;49.404;7.734;2023-12-20T08:58:28;97592.97;;;2.77;100.00
23616;BME280;11985;49.404;7.734;2023-12-20T09:03:30;97576.19;;;2.89;100.00
23616;BME280;11985;49.404;7.734;2023-12-20T09:08:32;97577.94;;;3.06;100.00
23616;BME280;11985;49.404;7.734;2023-12-20T09:13:35;97585.16;;;3.12;100.00
23616;BME280;11985;49.404;7.734;2023-12-20T09:18:37;97593.25;;;3.09;100.00
23616;BME280;11985;49.404;7.734;2023-12-20T09:23:39;97593.56;;;3.06;100.00
23616;BME280;11985;49.404;7.734;2023-12-20T09:28:42;97582.63;;;3.03;100.00
23616;BME280;11985;49.404;7.734;2023-12-20T09:33:43;97580.19;;;3.01;100.00
23616;BME280;11985;49.404;7.734;2023-12-20T09:38:45;97580.19;;;3.01;100.00
23616;BME280;11985;49.404;7.734;2023-12-20T09:43:48;97587.75;;;3.12;100.00
23616;BME280;11985;49.404;7.734;2023-12-20T09:48:50;97590.00;;;3.07;100.00
23616;BME280;11985;49.404;7.734;2023-12-20T09:53:54;97582.34;;;3.06;100.00
23616;BME280;11985;49.404;7.734;2023-12-20T09:58:57;97576.00;;;3.08;100.00
23616;BME280;11985;49.404;7.734;2023-12-20T10:04:00;97574.56;;;3.14;100.00
23616;BME280;11985;49.404;7.734;2023-12-20T10:09:02;97575.38;;;3.14;100.00
23616;BME280;11985;49.404;7.734;2023-12-20T10:14:07;97576.53;;;3.12;100.00
23616;BME280;11985;49.404;7.734;2023-12-20T10:19:08;97580.19;;;3.01;100.00
23616;BME280;11985;49.404;7.734;2023-12-20T10:24:16;97568.59;;;2.96;100.00
23616;BME280;11985;49.404;7.734;2023-12-20T10:29:19;97565.47;;;2.92;100.00
23616;BME280;11985;49.404;7.734;2023-12-20T10:34:21;97569.69;;;2.93;100.00
23616;BME280;11985;49.404;7.734;2023-12-20T10:39:23;97564.00;;;2.89;100.00
23616;BME280;11985;49.404;7.734;2023-12-20T10:44:26;97563.38;;;2.96;100.00
23616;BME280;11985;49.404;7.734;2023-12-20T10:49:29;97549.94;;;3.00;100.00
23616;BME280;11985;49.404;7.734;2023-12-20T10:54:31;97552.41;;;3.10;100.00
23616;BME280;11985;49.404;7.734;2023-12-20T10:59:37;97545.78;;;3.15;100.00
23616;BME280;11985;49.404;7.734;2023-12-20T11:04:46;97540.91;;;3.12;100.00
23616;BME280;11985;49.404;7.734;2023-12-20T11:09:56;97543.78;;;3.09;100.00
23616;BME280;11985;49.404;7.734;2023-12-20T11:15:02;97536.00;;;3.09;100.00
23616;BME280;11985;49.404;7.734;2023-12-20T11:20:09;97541.00;;;3.03;100.00
23616;BME280;11985;49.404;7.734;2023-12-20T11:25:12;97531.09;;;3.06;100.00
23616;BME280;11985;49.404;7.734;2023-12-20T11:30:15;97531.59;;;3.10;100.00
23616;BME280;11985;49.404;7.734;2023-12-20T11:35:18;97515.69;;;3.13;100.00
23616;BME280;11985;49.404;7.734;2023-12-20T11:40:23;97520.09;;;3.12;100.00
23616;BME280;11985;49.404;7.734;2023-12-20T11:45:27;97522.38;;;3.15;100.00
23616;BME280;11985;49.404;7.734;2023-12-20T11:50:29;97523.88;;;3.18;100.00
23616;BME280;11985;49.404;7.734;2023-12-20T11:55:31;97534.19;;;3.28;100.00
23616;BME280;11985;49.404;7.734;2023-12-20T12:00:34;97526.75;;;3.41;100.00
23616;BME280;11985;49.404;7.734;2023-12-20T12:05:36;97513.75;;;3.41;100.00
23616;BME280;11985;49.404;7.734;2023-12-20T12:10:37;97508.84;;;3.38;100.00
23616;BME280;11985;49.404;7.734;2023-12-20T12:15:40;97504.59;;;3.37;100.00
23616;BME280;11985;49.404;7.734;2023-12-20T12:20:43;97508.53;;;3.41;100.00
23616;BME280;11985;49.404;7.734;2023-12-20T12:25:44;97508.22;;;3.44;100.00
23616;BME280;11985;49.404;7.734;2023-12-20T12:30:57;97512.47;;;3.45;100.00
23616;BME280;11985;49.404;7.734;2023-12-20T12:35:59;97518.03;;;3.50;100.00
23616;BME280;11985;49.404;7.734;2023-12-20T12:41:01;97505.97;;;3.49;100.00
23616;BME280;11985;49.404;7.734;2023-12-20T12:46:05;97513.75;;;3.41;100.00
23616;BME280;11985;49.404;7.734;2023-12-20T12:51:06;97515.69;;;3.39;100.00
23616;BME280;11985;49.404;7.734;2023-12-20T12:56:13;97505.94;;;3.41;100.00
23616;BME280;11985;49.404;7.734;2023-12-20T13:01:16;97497.84;;;3.52;100.00
23616;BME280;11985;49.404;7.734;2023-12-20T13:06:18;97471.47;;;3.55;100.00
23616;BME280;11985;49.404;7.734;2023-12-20T13:11:19;97448.38;;;3.52;100.00
23616;BME280;11985;49.404;7.734;2023-12-20T13:16:22;97442.53;;;3.58;100.00
23616;BME280;11985;49.404;7.734;2023-12-20T13:21:24;97439.00;;;3.76;100.00
23616;BME280;11985;49.404;7.734;2023-12-20T13:26:26;97437.09;;;3.78;100.00
23616;BME280;11985;49.404;7.734;2023-12-20T13:31:37;97429.28;;;3.78;100.00
23616;BME280;11985;49.404;7.734;2023-12-20T13:36:39;97420.75;;;3.67;100.00
23616;BME280;11985;49.404;7.734;2023-12-20T13:41:41;97407.06;;;3.57;100.00
23616;BME280;11985;49.404;7.734;2023-12-20T13:46:44;97400.56;;;3.61;100.00
23616;BME280;11985;49.404;7.734;2023-12-20T13:51:47;97393.44;;;3.80;100.00
23616;BME280;11985;49.404;7.734;2023-12-20T13:56:49;97391.19;;;3.85;100.00
23616;BME280;11985;49.404;7.734;2023-12-20T14:01:51;97394.94;;;3.90;100.00
23616;BME280;11985;49.404;7.734;2023-12-20T14:06:53;97411.69;;;3.88;100.00
23616;BME280;11985;49.404;7.734;2023-12-20T14:11:55;97424.19;;;3.76;100.00
23616;BME280;11985;49.404;7.734;2023-12-20T14:16:58;97416.53;;;3.66;100.00
23616;BME280;11985;49.404;7.734;2023-12-20T14:21:59;97404.13;;;3.60;100.00
23616;BME280;11985;49.404;7.734;2023-12-20T14:27:02;97400.22;;;3.64;100.00
23616;BME280;11985;49.404;7.734;2023-12-20T14:32:06;97404.94;;;3.61;100.00
23616;BME280;11985;49.404;7.734;2023-12-20T14:37:07;97410.31;;;3.59;100.00
23616;BME280;11985;49.404;7.734;2023-12-20T14:42:09;97393.91;;;3.67;100.00
23616;BME280;11985;49.404;7.734;2023-12-20T14:47:15;97405.13;;;3.67;100.00
23616;BME280;11985;49.404;7.734;2023-12-20T14:52:17;97395.19;;;3.71;100.00
23616;BME280;11985;49.404;7.734;2023-12-20T14:57:19;97396.34;;;3.68;100.00
23616;BME280;11985;49.404;7.734;2023-12-20T15:02:22;97378.59;;;3.64;100.00
23616;BME280;11985;49.404;7.734;2023-12-20T15:07:23;97384.59;;;3.64;100.00
23616;BME280;11985;49.404;7.734;2023-12-20T15:12:25;97356.94;;;3.63;100.00
23616;BME280;11985;49.404;7.734;2023-12-20T15:17:28;97361.81;;;3.58;100.00
23616;BME280;11985;49.404;7.734;2023-12-20T15:22:30;97360.81;;;3.59;100.00
23616;BME280;11985;49.404;7.734;2023-12-20T15:27:34;97365.06;;;3.60;100.00
23616;BME280;11985;49.404;7.734;2023-12-20T15:32:39;97351.91;;;3.62;100.00
23616;BME280;11985;49.404;7.734;2023-12-20T15:37:41;97360.53;;;3.62;100.00
23616;BME280;11985;49.404;7.734;2023-12-20T15:42:43;97349.47;;;3.68;100.00
23616;BME280;11985;49.404;7.734;2023-12-20T15:47:46;97358.25;;;3.67;100.00
23616;BME280;11985;49.404;7.734;2023-12-20T15:52:48;97357.44;;;3.67;100.00
23616;BME280;11985;49.404;7.734;2023-12-20T15:57:49;97354.03;;;3.66;100.00
23616;BME280;11985;49.404;7.734;2023-12-20T16:02:52;97337.06;;;3.62;100.00
23616;BME280;11985;49.404;7.734;2023-12-20T16:07:54;97338.88;;;3.62;100.00
23616;BME280;11985;49.404;7.734;2023-12-20T16:12:55;97348.94;;;3.65;100.00
23616;BME280;11985;49.404;7.734;2023-12-20T16:17:58;97345.06;;;3.69;100.00
23616;BME280;11985;49.404;7.734;2023-12-20T16:23:00;97349.47;;;3.68;100.00
23616;BME280;11985;49.404;7.734;2023-12-20T16:28:02;97352.06;;;3.68;100.00
23616;BME280;11985;49.404;7.734;2023-12-20T16:33:05;97355.47;;;3.69;100.00
23616;BME280;11985;49.404;7.734;2023-12-20T16:38:07;97365.59;;;3.72;100.00
23616;BME280;11985;49.404;7.734;2023-12-20T16:43:08;97370.63;;;3.82;100.00
23616;BME280;11985;49.404;7.734;2023-12-20T16:48:11;97371.31;;;3.84;100.00
23616;BME280;11985;49.404;7.734;2023-12-20T16:53:13;97373.09;;;3.83;100.00
23616;BME280;11985;49.404;7.734;2023-12-20T16:58:15;97365.09;;;3.77;100.00
23616;BME280;11985;49.404;7.734;2023-12-20T17:03:20;97363.94;;;3.71;100.00
23616;BME280;11985;49.404;7.734;2023-12-20T17:08:24;97342.63;;;3.67;100.00
23616;BME280;11985;49.404;7.734;2023-12-20T17:13:26;97352.72;;;3.62;100.00
23616;BME280;11985;49.404;7.734;2023-12-20T17:18:29;97355.94;;;3.56;100.00
23616;BME280;11985;49.404;7.734;2023-12-20T17:23:31;97361.16;;;3.56;100.00
23616;BME280;11985;49.404;7.734;2023-12-20T17:28:33;97354.00;;;3.58;100.00
23616;BME280;11985;49.404;7.734;2023-12-20T17:33:36;97357.88;;;3.54;100.00
23616;BME280;11985;49.404;7.734;2023-12-20T17:38:37;97364.41;;;3.58;100.00
23616;BME280;11985;49.404;7.734;2023-12-20T17:43:40;97360.19;;;3.65;100.00
23616;BME280;11985;49.404;7.734;2023-12-20T17:48:44;97356.28;;;3.69;100.00
23616;BME280;11985;49.404;7.734;2023-12-20T17:53:45;97341.81;;;3.67;100.00
23616;BME280;11985;49.404;7.734;2023-12-20T17:58:47;97340.66;;;3.69;100.00
23616;BME280;11985;49.404;7.734;2023-12-20T18:03:50;97338.22;;;3.68;100.00
23616;BME280;11985;49.404;7.734;2023-12-20T18:08:51;97325.50;;;3.65;100.00
23616;BME280;11985;49.404;7.734;2023-12-20T18:13:54;97326.66;;;3.62;100.00
23616;BME280;11985;49.404;7.734;2023-12-20T18:18:57;97311.03;;;3.62;100.00
23616;BME280;11985;49.404;7.734;2023-12-20T18:23:58;97309.88;;;3.57;100.00
23616;BME280;11985;49.404;7.734;2023-12-20T18:29:01;97297.84;;;3.56;100.00
23616;BME280;11985;49.404;7.734;2023-12-20T18:34:05;97313.31;;;3.57;100.00
23616;BME280;11985;49.404;7.734;2023-12-20T18:39:06;97306.81;;;3.61;100.00
23616;BME280;11985;49.404;7.734;2023-12-20T18:44:08;97279.13;;;3.68;100.00
23616;BME280;11985;49.404;7.734;2023-12-20T18:49:11;97290.53;;;3.67;100.00
23616;BME280;11985;49.404;7.734;2023-12-20T18:54:13;97295.06;;;3.65;100.00
23616;BME280;11985;49.404;7.734;2023-12-20T18:59:15;97293.63;;;3.63;100.00
23616;BME280;11985;49.404;7.734;2023-12-20T19:04:18;97285.00;;;3.62;100.00
23616;BME280;11985;49.404;7.734;2023-12-20T19:09:20;97275.38;;;3.63;100.00
23616;BME280;11985;49.404;7.734;2023-12-20T19:14:22;97284.00;;;3.63;100.00
23616;BME280;11985;49.404;7.734;2023-12-20T19:19:25;97284.50;;;3.67;100.00
23616;BME280;11985;49.404;7.734;2023-12-20T19:24:26;97261.88;;;3.67;100.00
23616;BME280;11985;49.404;7.734;2023-12-20T19:29:28;97276.84;;;3.65;100.00
23616;BME280;11985;49.404;7.734;2023-12-20T19:34:31;97279.78;;;3.62;100.00
23616;BME280;11985;49.404;7.734;2023-12-20T19:39:33;97289.72;;;3.67;100.00
23616;BME280;11985;49.404;7.734;2023-12-20T19:44:35;97278.78;;;3.71;100.00
23616;BME280;11985;49.404;7.734;2023-12-20T19:49:38;97267.88;;;3.76;100.00
23616;BME280;11985;49.404;7.734;2023-12-20T19:54:41;97263.66;;;3.75;100.00
23616;BME280;11985;49.404;7.734;2023-12-20T19:59:44;97261.06;;;3.75;100.00
23616;BME280;11985;49.404;7.734;2023-12-20T20:04:47;97255.38;;;3.80;100.00
23616;BME280;11985;49.404;7.734;2023-12-20T20:09:48;97255.88;;;3.83;100.00
23616;BME280;11985;49.404;7.734;2023-12-20T20:14:50;97257.16;;;3.79;100.00
23616;BME280;11985;49.404;7.734;2023-12-20T20:19:53;97252.13;;;3.78;100.00
23616;BME280;11985;49.404;7.734;2023-12-20T20:24:55;97243.47;;;3.77;100.00
23616;BME280;11985;49.404;7.734;2023-12-20T20:29:57;97225.91;;;3.79;100.00
23616;BME280;11985;49.404;7.734;2023-12-20T20:35:00;97211.88;;;3.80;100.00
23616;BME280;11985;49.404;7.734;2023-12-20T20:40:02;97210.72;;;3.83;100.00
23616;BME280;11985;49.404;7.734;2023-12-20T20:45:04;97202.91;;;3.91;100.00
23616;BME280;11985;49.404;7.734;2023-12-20T20:50:08;97205.84;;;3.96;100.00
23616;BME280;11985;49.404;7.734;2023-12-20T20:55:10;97195.44;;;3.96;100.00
23616;BME280;11985;49.404;7.734;2023-12-20T21:00:13;97189.25;;;3.89;100.00
23616;BME280;11985;49.404;7.734;2023-12-20T21:05:17;97187.28;;;3.91;100.00
23616;BME280;11985;49.404;7.734;2023-12-20T21:10:19;97178.00;;;3.88;100.00
23616;BME280;11985;49.404;7.734;2023-12-20T21:15:21;97172.63;;;3.90;100.00
23616;BME280;11985;49.404;7.734;2023-12-20T21:20:24;97176.88;;;3.91;100.00
23616;BME280;11985;49.404;7.734;2023-12-20T21:25:25;97173.28;;;3.92;100.00
23616;BME280;11985;49.404;7.734;2023-12-20T21:30:27;97172.63;;;3.90;100.00
23616;BME280;11985;49.404;7.734;2023-12-20T21:35:35;97162.38;;;3.88;100.00
23616;BME280;11985;49.404;7.734;2023-12-20T21:40:36;97155.03;;;3.92;100.00
23616;BME280;11985;49.404;7.734;2023-12-20T21:45:38;97136.47;;;3.95;100.00
23616;BME280;11985;49.404;7.734;2023-12-20T21:50:41;97119.19;;;3.94;100.00
23616;BME280;11985;49.404;7.734;2023-12-20T21:55:43;97121.97;;;3.92;100.00
23616;BME280;11985;49.404;7.734;2023-12-20T22:00:44;97124.75;;;3.91;100.00
23616;BME280;11985;49.404;7.734;2023-12-20T22:05:47;97129.34;;;3.89;100.00
23616;BME280;11985;49.404;7.734;2023-12-20T22:10:49;97140.38;;;3.91;100.00
23616;BME280;11985;49.404;7.734;2023-12-20T22:15:51;97127.19;;;3.92;100.00
23616;BME280;11985;49.404;7.734;2023-12-20T22:20:54;97125.06;;;3.96;100.00
23616;BME280;11985;49.404;7.734;2023-12-20T22:25:55;97106.03;;;3.95;100.00
23616;BME280;11985;49.404;7.734;2023-12-20T22:30:57;97108.44;;;3.97;100.00
23616;BME280;11985;49.404;7.734;2023-12-20T22:36:01;97094.44;;;3.98;100.00
23616;BME280;11985;49.404;7.734;2023-12-20T22:41:02;97096.22;;;3.97;100.00
23616;BME280;11985;49.404;7.734;2023-12-20T22:46:04;97090.84;;;3.99;100.00
23616;BME280;11985;49.404;7.734;2023-12-20T22:51:07;97100.47;;;3.98;100.00
23616;BME280;11985;49.404;7.734;2023-12-20T22:56:09;97078.47;;;4.01;100.00
23616;BME280;11985;49.404;7.734;2023-12-20T23:01:11;97073.25;;;4.01;100.00
23616;BME280;11985;49.404;7.734;2023-12-20T23:06:14;97049.31;;;3.97;100.00
23616;BME280;11985;49.404;7.734;2023-12-20T23:11:16;97057.94;;;3.98;100.00
23616;BME280;11985;49.404;7.734;2023-12-20T23:16:17;97038.72;;;3.99;100.00
23616;BME280;11985;49.404;7.734;2023-12-20T23:21:20;97034.69;;;3.96;100.00
23616;BME280;11985;49.404;7.734;2023-12-20T23:26:22;97021.03;;;3.94;100.00
23616;BME280;11985;49.404;7.734;2023-12-20T23:31:24;97027.03;;;3.95;100.00
23616;BME280;11985;49.404;7.734;2023-12-20T23:36:27;97016.25;;;3.98;100.00
23616;BME280;11985;49.404;7.734;2023-12-20T23:41:29;96994.44;;;3.99;100.00
23616;BME280;11985;49.404;7.734;2023-12-20T23:46:31;96995.41;;;3.98;100.00
23616;BME280;11985;49.404;7.734;2023-12-20T23:51:34;96991.00;;;3.98;100.00
23616;BME280;11985;49.404;7.734;2023-12-20T23:56:35;96996.72;;;4.02;100.00
